Time;durP1;ratioP1;P1;durP2;ratioP2;P2;SDS_P1;SDS_P2;PMS_P1;PMS_P2;Temp;Humidity;BMP_temperature;BMP_pressure;BME280_temperature;BME280_humidity;BME280_pressure;Samples;Min_cycle;Max_cycle;Signal;HPM_P1;HPM_P2
2022/12/20 00:01:34;;;;;;;7.70;7.10;;;;;;;21.26;30.25;96817.22;6229851;28;103537;-63
2022/12/20 00:04:39;;;;;;;8.80;8.00;;;;;;;21.29;30.43;96834.53;6234024;28;103004;-63
2022/12/20 00:07:42;;;;;;;7.80;7.13;;;;;;;21.29;30.31;96832.69;6215297;27;103369;-63
2022/12/20 00:10:46;;;;;;;8.00;7.30;;;;;;;21.29;30.06;96838.00;6234330;28;103250;-63
2022/12/20 00:13:49;;;;;;;8.60;7.80;;;;;;;21.31;30.08;96840.41;6219721;28;104382;-63
2022/12/20 00:16:52;;;;;;;8.23;7.43;;;;;;;21.23;30.41;96835.56;6212329;28;102817;-63
2022/12/20 00:19:56;;;;;;;8.00;7.30;;;;;;;21.26;30.12;96841.19;6223188;28;104246;-63
2022/12/20 00:22:59;;;;;;;8.07;7.37;;;;;;;21.29;30.37;96848.66;6224069;28;103183;-63
2022/12/20 00:26:05;;;;;;;7.47;6.87;;;;;;;21.29;30.31;96848.66;6213288;28;103401;-63
2022/12/20 00:29:08;;;;;;;8.57;7.40;;;;;;;21.29;30.60;96847.84;6211088;28;103901;-63
2022/12/20 00:32:11;;;;;;;7.20;6.60;;;;;;;21.29;30.45;96856.63;6205544;28;103238;-63
2022/12/20 00:35:15;;;;;;;7.20;6.50;;;;;;;21.27;30.11;96850.78;6214580;28;103148;-63
2022/12/20 00:38:18;;;;;;;7.37;6.77;;;;;;;21.28;29.95;96844.38;6219197;28;104099;-63
2022/12/20 00:41:24;;;;;;;6.90;6.23;;;;;;;21.26;30.16;96840.38;6214853;28;104228;-64
2022/12/20 00:44:27;;;;;;;7.37;6.77;;;;;;;21.25;29.80;96839.56;6206973;27;103570;-64
2022/12/20 00:47:30;;;;;;;7.97;7.20;;;;;;;21.24;30.36;96845.16;6213488;28;103267;-64
2022/12/20 00:50:35;;;;;;;7.27;6.57;;;;;;;21.21;29.63;96830.50;6213107;28;102949;-63
2022/12/20 00:53:38;;;;;;;6.77;6.17;;;;;;;21.22;30.24;96837.44;6214662;27;104088;-64
2022/12/20 00:56:42;;;;;;;7.27;6.67;;;;;;;21.23;29.72;96838.22;6217876;28;104475;-65
2022/12/20 00:59:45;;;;;;;6.37;5.77;;;;;;;21.17;29.90;96834.72;6214214;28;103137;-63
2022/12/20 01:02:48;;;;;;;6.33;5.80;;;;;;;21.21;30.56;96844.63;6212196;28;104241;-63
2022/12/20 01:05:54;;;;;;;6.57;6.07;;;;;;;21.18;30.24;96833.69;6203986;27;102934;-64
2022/12/20 01:08:57;;;;;;;6.40;5.80;;;;;;;21.20;29.91;96848.34;6213852;28;104189;-64
2022/12/20 01:12:01;;;;;;;6.07;5.57;;;;;;;21.20;30.38;96843.00;6236063;28;104156;-63
2022/12/20 01:15:05;;;;;;;6.60;6.00;;;;;;;21.13;30.19;96823.78;6217434;28;103192;-63
2022/12/20 01:18:08;;;;;;;6.10;5.60;;;;;;;21.23;30.07;96841.69;6203383;28;103696;-64
2022/12/20 01:21:15;;;;;;;6.53;6.00;;;;;;;21.23;29.52;96833.72;6214667;28;103993;-63
2022/12/20 01:24:19;;;;;;;6.47;5.87;;;;;;;21.21;29.85;96825.97;6216834;28;103048;-63
2022/12/20 01:27:22;;;;;;;5.53;5.03;;;;;;;21.23;30.04;96823.06;6211537;28;103087;-63
2022/12/20 01:30:26;;;;;;;6.07;5.57;;;;;;;21.22;29.95;96821.47;6219315;28;104345;-63
2022/12/20 01:33:29;;;;;;;5.53;5.07;;;;;;;21.23;29.62;96817.75;6213981;28;104481;-63
2022/12/20 01:36:36;;;;;;;6.73;6.13;;;;;;;21.23;29.72;96812.41;6219183;28;103074;-63
2022/12/20 01:39:40;;;;;;;5.33;4.93;;;;;;;21.22;29.75;96813.47;6202101;28;102960;-63
2022/12/20 01:42:43;;;;;;;6.20;5.67;;;;;;;21.23;29.95;96806.28;6211570;28;103447;-63
2022/12/20 01:45:46;;;;;;;6.37;5.87;;;;;;;21.21;29.53;96809.22;6215723;28;103199;-63
2022/12/20 01:48:55;;;;;;;5.87;5.37;;;;;;;21.20;29.75;96800.41;6216286;28;103946;-63
2022/12/20 01:52:04;;;;;;;5.37;4.97;;;;;;;21.19;30.12;96801.47;6220664;28;103139;-63
2022/12/20 01:55:12;;;;;;;6.17;5.67;;;;;;;21.21;29.71;96799.34;6219477;28;103193;-62
2022/12/20 01:58:18;;;;;;;5.90;5.40;;;;;;;21.21;29.76;96798.56;6216068;28;103544;-62
2022/12/20 02:01:22;;;;;;;5.23;4.73;;;;;;;21.21;29.89;96794.03;6213129;28;102776;-62
2022/12/20 02:04:26;;;;;;;5.40;4.90;;;;;;;21.20;29.55;96784.44;6208184;28;103428;-62
2022/12/20 02:07:34;;;;;;;5.30;4.90;;;;;;;21.20;29.42;96781.78;6212603;28;103545;-64
2022/12/20 02:10:54;;;;;;;5.30;4.90;;;;;;;21.18;29.93;96775.13;6212539;28;103211;-66
2022/12/20 02:14:12;;;;;;;5.67;5.23;;;;;;;21.19;29.52;96782.03;6201854;27;103271;-62
2022/12/20 02:17:28;;;;;;;5.80;5.30;;;;;;;21.19;29.50;96772.19;6211584;28;103174;-62
2022/12/20 02:21:06;;;;;;;5.33;4.93;;;;;;;21.19;29.70;96780.19;6213558;28;103637;-64
2022/12/20 02:24:47;;;;;;;5.73;5.23;;;;;;;21.17;29.56;96776.16;6213168;27;104641;-64
2022/12/20 02:28:00;;;;;;;6.10;5.50;;;;;;;21.09;29.46;96763.34;6211143;28;103104;-64
2022/12/20 02:31:10;;;;;;;6.27;5.67;;;;;;;21.17;29.27;96779.63;6217757;28;104424;-64
2022/12/20 02:34:15;;;;;;;6.30;5.70;;;;;;;21.18;29.35;96783.09;6226858;28;103009;-64
2022/12/20 02:37:18;;;;;;;6.53;5.93;;;;;;;21.17;29.37;96779.63;6204307;28;103025;-64
2022/12/20 02:40:25;;;;;;;6.23;5.70;;;;;;;21.05;29.11;96765.72;6226892;28;103565;-65
2022/12/20 02:46:55;;;;;;;6.10;5.60;;;;;;;21.18;29.62;96769.78;6225952;28;104285;-64
2022/12/20 02:49:59;;;;;;;5.73;5.27;;;;;;;21.17;29.30;96774.31;6205652;28;103662;-64
2022/12/20 02:53:04;;;;;;;6.97;6.37;;;;;;;21.18;29.49;96761.81;6223998;28;103141;-63
2022/12/20 02:56:14;;;;;;;6.13;5.60;;;;;;;21.14;29.02;96761.50;6228966;28;103278;-63
2022/12/20 02:59:22;;;;;;;6.40;5.80;;;;;;;21.18;29.57;96761.81;6202026;28;103255;-65
2022/12/20 03:03:21;;;;;;;6.67;6.17;;;;;;;21.18;29.33;96762.59;6210429;28;103027;-64
2022/12/20 03:05:55;;;;;;;6.93;6.33;;;;;;;21.18;29.18;96753.81;6221330;28;103017;-64
2022/12/20 03:08:58;;;;;;;6.10;5.60;;;;;;;21.19;29.53;96755.41;6210582;28;102702;-64
2022/12/20 03:12:02;;;;;;;6.70;6.10;;;;;;;21.12;28.80;96750.31;6200702;28;103196;-64
2022/12/20 03:15:06;;;;;;;6.23;5.70;;;;;;;21.18;29.38;96759.13;6210933;28;103021;-63
2022/12/20 03:18:10;;;;;;;6.67;6.07;;;;;;;21.16;28.99;96751.38;6210704;28;103083;-64
2022/12/20 03:21:13;;;;;;;5.87;5.37;;;;;;;21.15;29.64;96748.97;6209249;28;103618;-64
2022/12/20 03:24:17;;;;;;;6.90;6.30;;;;;;;21.15;29.42;96751.66;6216557;28;103175;-64
2022/12/20 03:27:21;;;;;;;7.33;6.73;;;;;;;21.07;29.21;96730.84;6220987;28;104139;-65
2022/12/20 03:30:24;;;;;;;6.83;6.23;;;;;;;21.16;29.50;96750.59;6215738;28;103056;-64
2022/12/20 03:33:29;;;;;;;6.83;6.20;;;;;;;21.17;29.33;96750.34;6200140;27;102995;-64
2022/12/20 03:36:32;;;;;;;6.13;5.63;;;;;;;21.18;29.12;96756.47;6210504;28;103038;-64
2022/12/20 03:39:35;;;;;;;5.90;5.40;;;;;;;21.09;29.44;96736.72;6210432;28;106183;-64
2022/12/20 03:42:38;;;;;;;6.77;6.17;;;;;;;21.10;29.44;96738.31;6228046;28;104171;-64
2022/12/20 03:45:41;;;;;;;5.87;5.37;;;;;;;21.15;29.13;96747.13;6206566;28;104565;-64
2022/12/20 03:48:45;;;;;;;6.80;6.30;;;;;;;21.14;29.46;96752.72;6210426;28;103061;-63
2022/12/20 03:51:48;;;;;;;6.53;6.03;;;;;;;21.15;29.29;96746.31;6229747;28;103006;-64
2022/12/20 03:54:52;;;;;;;6.57;5.97;;;;;;;21.14;28.88;96748.19;6218527;28;103630;-64
2022/12/20 03:57:55;;;;;;;6.57;5.97;;;;;;;21.14;29.04;96744.72;6208233;28;103182;-64
2022/12/20 04:00:58;;;;;;;6.53;6.00;;;;;;;21.13;28.92;96748.44;6209563;28;104160;-64
2022/12/20 04:04:03;;;;;;;6.37;5.77;;;;;;;21.13;29.21;96740.47;6209707;28;103392;-63
2022/12/20 04:07:06;;;;;;;7.30;6.60;;;;;;;21.14;29.24;96734.06;6210469;28;103214;-64
2022/12/20 04:10:09;;;;;;;6.90;6.30;;;;;;;21.12;29.42;96741.53;6212167;28;104572;-61
2022/12/20 04:13:12;;;;;;;6.03;5.53;;;;;;;21.10;28.95;96735.66;6212100;28;103351;-62
2022/12/20 04:16:18;;;;;;;6.73;6.13;;;;;;;21.11;29.00;96729.28;6228595;28;103705;-62
2022/12/20 04:19:23;;;;;;;6.67;5.90;;;;;;;21.13;28.84;96725.28;6199618;28;102967;-61
2022/12/20 04:22:26;;;;;;;6.30;5.80;;;;;;;21.17;28.84;96733.56;6210769;28;104164;-62
2022/12/20 04:25:29;;;;;;;7.23;6.63;;;;;;;21.19;28.63;96731.47;6208681;28;103171;-65
2022/12/20 04:28:32;;;;;;;6.13;5.63;;;;;;;21.21;28.70;96724.00;6208928;28;103366;-65
2022/12/20 04:31:36;;;;;;;6.47;5.87;;;;;;;21.23;28.69;96721.88;6202576;28;103424;-65
2022/12/20 04:34:40;;;;;;;6.60;6.10;;;;;;;21.21;28.64;96724.00;6210719;28;103242;-65
2022/12/20 04:37:43;;;;;;;6.27;5.77;;;;;;;21.20;28.62;96717.88;6222759;28;103066;-65
2022/12/20 04:40:48;;;;;;;6.73;6.13;;;;;;;21.19;28.95;96720.81;6219847;28;102814;-65
2022/12/20 04:43:53;;;;;;;6.50;5.90;;;;;;;21.17;28.58;96717.56;6208105;28;103176;-64
2022/12/20 04:46:56;;;;;;;8.77;7.03;;;;;;;21.17;29.09;96720.25;6217315;28;103150;-61
2022/12/20 04:50:01;;;;;;;7.90;7.20;;;;;;;21.14;29.06;96720.75;6210380;28;102971;-61
2022/12/20 04:56:27;;;;;;;7.30;6.70;;;;;;;21.08;29.31;96719.94;6212990;28;102943;-62
2022/12/20 04:59:30;;;;;;;6.87;6.27;;;;;;;21.06;30.51;96721.25;6209892;28;104075;-61
2022/12/20 05:02:33;;;;;;;7.23;6.47;;;;;;;21.08;29.78;96719.16;6202704;28;104344;-61
2022/12/20 05:05:38;;;;;;;8.47;6.70;;;;;;;21.07;29.56;96717.53;6198838;28;104159;-62
2022/12/20 05:08:41;;;;;;;8.03;6.90;;;;;;;21.10;29.60;96715.16;6200854;28;103298;-62
2022/12/20 05:11:44;;;;;;;7.30;6.60;;;;;;;21.17;29.69;96709.59;6207653;28;103204;-62
2022/12/20 05:14:47;;;;;;;6.70;6.10;;;;;;;21.23;29.67;96711.25;6207736;28;103938;-62
2022/12/20 05:17:58;;;;;;;6.73;5.83;;;;;;;21.16;29.32;96692.03;6213321;27;103880;-61
2022/12/20 05:27:46;;;;;;;8.30;7.50;;;;;;;21.32;31.17;96716.84;6201912;28;103260;-62
2022/12/20 05:30:49;;;;;;;12.63;6.60;;;;;;;21.24;31.00;96715.50;6211250;28;103193;-62
2022/12/20 05:33:53;;;;;;;9.77;7.10;;;;;;;21.18;31.04;96717.34;6213217;28;105388;-61
2022/12/20 05:36:57;;;;;;;9.40;7.13;;;;;;;21.15;30.93;96719.69;6213502;28;105005;-61
2022/12/20 05:40:00;;;;;;;8.63;6.80;;;;;;;21.14;30.97;96718.09;6204352;28;105944;-61
2022/12/20 05:43:05;;;;;;;6.70;6.10;;;;;;;21.13;31.16;96721.81;6214569;28;105351;-62
2022/12/20 05:46:08;;;;;;;8.20;7.23;;;;;;;21.13;30.82;96716.50;6212022;28;103270;-61
2022/12/20 05:49:11;;;;;;;7.00;6.30;;;;;;;21.12;30.86;96726.34;6211919;28;104024;-61
2022/12/20 05:52:16;;;;;;;7.47;6.40;;;;;;;21.03;30.89;96708.44;6202164;28;104411;-64
2022/12/20 05:55:19;;;;;;;7.47;6.70;;;;;;;21.07;30.99;96714.88;6211866;28;103376;-63
2022/12/20 05:58:22;;;;;;;6.97;6.20;;;;;;;21.11;30.74;96726.59;6211653;28;104362;-63
2022/12/20 06:01:25;;;;;;;7.73;6.53;;;;;;;21.10;30.72;96727.66;6207220;27;105069;-63
2022/12/20 06:04:29;;;;;;;7.60;6.90;;;;;;;21.10;31.00;96730.34;6208606;28;103692;-63
2022/12/20 06:07:33;;;;;;;7.30;6.60;;;;;;;21.09;31.00;96726.06;6212982;28;104208;-62
2022/12/20 06:10:36;;;;;;;7.20;6.50;;;;;;;21.10;30.64;96725.00;6212392;28;102959;-63
2022/12/20 06:13:40;;;;;;;7.13;6.50;;;;;;;21.08;30.40;96732.44;6203296;28;104690;-62
2022/12/20 06:16:43;;;;;;;6.80;6.20;;;;;;;21.07;30.32;96733.50;6212601;28;103951;-63
2022/12/20 06:19:46;;;;;;;7.40;6.80;;;;;;;21.07;30.55;96729.00;6212825;28;102706;-63
2022/12/20 06:22:51;;;;;;;7.63;6.50;;;;;;;21.06;30.20;96739.91;6212523;28;103308;-63
2022/12/20 06:25:54;;;;;;;7.13;6.53;;;;;;;21.06;30.27;96731.91;6202105;28;103265;-62
2022/12/20 06:29:00;;;;;;;7.13;6.43;;;;;;;21.05;30.10;96731.09;6212406;28;104266;-64
2022/12/20 06:32:05;;;;;;;7.07;6.47;;;;;;;20.97;30.26;96715.56;6211755;28;102968;-63
2022/12/20 06:35:09;;;;;;;7.40;6.80;;;;;;;21.00;30.24;96722.25;6207780;27;104478;-64
2022/12/20 06:38:13;;;;;;;8.53;7.63;;;;;;;21.09;30.47;96739.38;6206966;28;104093;-62
2022/12/20 06:41:16;;;;;;;7.97;6.97;;;;;;;21.11;30.29;96734.59;6212566;28;104374;-62
2022/12/20 06:44:19;;;;;;;11.83;10.73;;;;;;;21.13;29.99;96722.63;6212423;28;104318;-64
2022/12/20 06:47:22;;;;;;;9.17;8.37;;;;;;;21.13;30.06;96713.84;6202313;28;103465;-64
2022/12/20 06:50:26;;;;;;;8.90;8.10;;;;;;;20.96;29.65;96684.69;6212213;28;103706;-65
2022/12/20 06:53:31;;;;;;;9.47;8.57;;;;;;;21.20;29.76;96719.75;6211917;28;103253;-64
2022/12/20 06:56:34;;;;;;;8.87;8.07;;;;;;;21.20;29.70;96717.09;6212287;28;102690;-65
2022/12/20 06:59:43;;;;;;;8.50;7.73;;;;;;;21.42;29.17;96719.56;6202031;28;104047;-64
2022/12/20 07:02:46;;;;;;;8.17;7.47;;;;;;;21.93;28.61;96719.78;6210874;28;103198;-64
2022/12/20 07:05:52;;;;;;;9.10;8.27;;;;;;;22.24;27.86;96715.28;6211692;28;103162;-64
2022/12/20 07:08:56;;;;;;;8.17;7.37;;;;;;;22.37;28.02;96710.25;6211483;28;103023;-64
2022/12/20 07:11:59;;;;;;;8.20;7.50;;;;;;;22.47;27.71;96714.75;6201296;28;103092;-63
2022/12/20 07:15:02;;;;;;;8.23;7.50;;;;;;;22.61;27.26;96705.19;6211125;28;103141;-65
2022/12/20 07:18:06;;;;;;;7.93;7.23;;;;;;;22.67;27.69;96711.31;6211279;28;103078;-64
2022/12/20 07:21:09;;;;;;;7.80;7.10;;;;;;;22.66;27.50;96709.72;6202275;28;103333;-64
2022/12/20 07:24:13;;;;;;;7.10;6.50;;;;;;;22.41;27.40;96700.63;6211723;28;104531;-64
2022/12/20 07:27:17;;;;;;;7.53;6.83;;;;;;;22.39;27.79;96696.63;6211481;28;103159;-64
2022/12/20 07:30:22;;;;;;;7.83;7.20;;;;;;;22.35;27.74;96695.56;6210798;28;103324;-64
2022/12/20 07:33:25;;;;;;;8.03;7.17;;;;;;;22.34;27.84;96709.94;6200054;28;104218;-64
2022/12/20 07:36:28;;;;;;;7.20;6.50;;;;;;;22.34;28.06;96700.09;6211236;28;104202;-64
2022/12/20 07:39:32;;;;;;;6.60;6.00;;;;;;;22.26;27.67;96686.50;6210092;28;104369;-64
2022/12/20 07:42:35;;;;;;;7.23;6.63;;;;;;;22.31;28.16;96694.50;6210877;28;103224;-63
2022/12/20 07:45:43;;;;;;;7.73;7.03;;;;;;;22.38;28.02;96700.38;6200007;28;103571;-64
2022/12/20 07:48:46;;;;;;;6.87;6.27;;;;;;;22.36;27.95;96699.84;6211079;28;103490;-63
2022/12/20 07:51:53;;;;;;;6.90;6.20;;;;;;;22.37;28.18;96704.91;6210609;28;104383;-64
2022/12/20 07:55:01;;;;;;;6.60;6.10;;;;;;;22.38;27.71;96697.72;6206438;28;103955;-64
2022/12/20 07:58:08;;;;;;;6.60;6.00;;;;;;;22.31;27.79;96689.94;6204867;28;103099;-63
2022/12/20 08:01:12;;;;;;;7.10;6.47;;;;;;;22.35;27.84;96687.56;6210874;28;103041;-63
2022/12/20 08:04:19;;;;;;;7.00;6.40;;;;;;;22.33;28.27;96681.69;6209499;28;103273;-65
2022/12/20 08:07:24;;;;;;;6.23;5.70;;;;;;;22.30;28.35;96687.56;6199989;28;104050;-63
2022/12/20 08:10:29;;;;;;;7.10;6.50;;;;;;;22.26;28.13;96673.97;6210389;28;103188;-64
2022/12/20 08:13:33;;;;;;;6.23;5.70;;;;;;;22.24;28.59;96680.63;6210614;28;103999;-64
2022/12/20 08:16:40;;;;;;;6.13;5.63;;;;;;;22.23;28.01;96685.16;6210464;28;103165;-63
2022/12/20 08:19:43;;;;;;;6.53;5.93;;;;;;;22.05;28.44;96651.81;6199231;28;103054;-64
2022/12/20 08:22:46;;;;;;;6.70;6.07;;;;;;;22.19;27.99;96676.09;6210303;28;103162;-64
2022/12/20 08:25:51;;;;;;;7.03;6.43;;;;;;;22.20;28.58;96672.38;6211300;28;103400;-64
2022/12/20 08:28:55;;;;;;;6.20;5.70;;;;;;;22.19;28.15;96675.31;6204712;28;104039;-63
2022/12/20 08:31:58;;;;;;;6.30;5.70;;;;;;;22.20;28.42;96677.69;6205269;28;103732;-64
2022/12/20 08:35:01;;;;;;;6.40;5.80;;;;;;;22.20;28.45;96682.25;6209626;28;104149;-63
2022/12/20 08:38:04;;;;;;;6.60;6.03;;;;;;;22.22;28.10;96656.09;6210182;28;103669;-63
2022/12/20 08:41:10;;;;;;;6.03;5.53;;;;;;;22.22;28.19;96653.44;6199251;28;103243;-63
2022/12/20 08:44:13;;;;;;;5.60;5.10;;;;;;;22.22;28.51;96651.56;6209881;28;103398;-64
2022/12/20 08:47:17;;;;;;;5.93;5.47;;;;;;;22.18;28.53;96647.00;6209860;28;103089;-64
2022/12/20 08:50:20;;;;;;;6.00;5.50;;;;;;;22.21;28.27;96641.97;6209748;28;103214;-64
2022/12/20 08:53:23;;;;;;;5.73;5.23;;;;;;;22.28;28.32;96647.81;6203328;28;104126;-64
2022/12/20 08:56:28;;;;;;;6.33;5.70;;;;;;;22.27;27.97;96656.09;6215083;28;102767;-64
2022/12/20 08:59:31;;;;;;;5.93;5.43;;;;;;;22.28;28.21;96652.34;6213666;28;103318;-64
2022/12/20 09:02:36;;;;;;;6.00;5.50;;;;;;;22.22;28.19;96642.78;6209887;28;103413;-64
2022/12/20 09:05:45;;;;;;;6.07;5.57;;;;;;;22.26;28.34;96639.28;6207011;28;103104;-64
2022/12/20 09:08:48;;;;;;;6.00;5.40;;;;;;;22.29;28.09;96649.41;6214192;28;103137;-64
2022/12/20 09:11:53;;;;;;;5.80;5.30;;;;;;;22.30;28.20;96636.88;6213976;28;104141;-65
2022/12/20 09:14:56;;;;;;;5.20;4.80;;;;;;;22.30;28.35;96628.88;6203307;28;102720;-64
2022/12/20 09:17:59;;;;;;;5.10;4.70;;;;;;;22.30;28.12;96621.69;6214293;28;104070;-64
2022/12/20 09:21:04;;;;;;;5.23;4.83;;;;;;;22.27;28.46;96611.56;6213709;28;103134;-64
2022/12/20 09:24:09;;;;;;;5.43;4.93;;;;;;;22.28;28.52;96615.03;6213476;28;103017;-64
2022/12/20 09:27:13;;;;;;;5.10;4.70;;;;;;;22.28;28.02;96613.16;6203847;28;103334;-64
2022/12/20 09:30:17;;;;;;;5.87;5.37;;;;;;;22.27;28.58;96603.56;6213931;28;103434;-64
2022/12/20 09:33:20;;;;;;;5.60;5.10;;;;;;;22.27;28.29;96592.88;6213550;28;103578;-64
2022/12/20 09:36:25;;;;;;;6.10;5.60;;;;;;;22.28;27.95;96604.34;6212760;28;103191;-64
2022/12/20 09:39:29;;;;;;;6.00;5.50;;;;;;;22.31;28.13;96593.94;6204166;27;102978;-64
2022/12/20 09:42:33;;;;;;;6.03;5.53;;;;;;;22.32;28.31;96594.75;6213650;28;104317;-64
2022/12/20 09:45:37;;;;;;;5.90;5.40;;;;;;;22.37;28.42;96584.88;6213691;28;103029;-64
2022/12/20 09:48:42;;;;;;;6.10;5.60;;;;;;;22.38;28.27;96583.81;6205814;28;103511;-64
2022/12/20 09:52:05;;;;;;;6.60;6.00;;;;;;;22.41;28.41;96579.81;6212525;28;103031;-66
2022/12/20 09:55:19;;;;;;;5.80;5.33;;;;;;;22.44;27.97;96573.13;6213130;28;103139;-64
2022/12/20 09:58:37;;;;;;;6.07;5.57;;;;;;;22.36;28.09;96550.47;6213413;28;103121;-64
2022/12/20 10:01:44;;;;;;;5.60;5.10;;;;;;;22.47;28.35;96568.03;6202025;27;104332;-64
2022/12/20 10:04:48;;;;;;;5.03;4.63;;;;;;;22.48;28.45;96556.31;6211592;28;103024;-64
2022/12/20 10:08:01;;;;;;;5.67;5.17;;;;;;;22.48;27.97;96553.63;6212521;28;104119;-67
2022/12/20 10:11:13;;;;;;;5.10;4.70;;;;;;;22.45;28.36;96542.72;6207821;28;103302;-64
2022/12/20 10:14:31;;;;;;;5.40;4.90;;;;;;;22.43;28.07;96534.97;6207750;28;103570;-64
2022/12/20 10:17:46;;;;;;;6.00;5.60;;;;;;;22.41;28.66;96529.91;6212514;28;103160;-64
2022/12/20 10:20:59;;;;;;;5.20;4.80;;;;;;;22.38;28.24;96524.34;6212574;28;103987;-65
2022/12/20 10:24:04;;;;;;;5.03;4.63;;;;;;;22.38;28.54;96509.13;6201777;28;103139;-64
2022/12/20 10:27:14;;;;;;;5.37;4.90;;;;;;;22.37;28.43;96512.06;6212380;28;103018;-64
2022/12/20 10:30:22;;;;;;;5.03;4.60;;;;;;;22.37;28.41;96491.53;6212314;28;103080;-64
2022/12/20 10:33:27;;;;;;;5.23;4.83;;;;;;;22.23;28.58;96468.38;6210004;28;103356;-65
2022/12/20 10:36:34;;;;;;;4.90;4.50;;;;;;;22.30;28.40;96474.22;6206471;28;103399;-65
2022/12/20 10:39:42;;;;;;;5.57;5.07;;;;;;;22.26;28.64;96459.81;6211349;28;103370;-64
2022/12/20 10:42:45;;;;;;;5.30;4.90;;;;;;;22.27;28.79;96454.22;6211847;28;102824;-64
2022/12/20 10:46:00;;;;;;;4.70;4.40;;;;;;;22.34;28.54;96451.25;6202370;28;104310;-64
2022/12/20 10:49:23;;;;;;;5.20;4.70;;;;;;;22.35;28.51;96445.66;6212196;28;103204;-64
2022/12/20 10:52:26;;;;;;;5.00;4.60;;;;;;;22.36;28.36;96441.13;6212300;28;103484;-63
2022/12/20 10:55:36;;;;;;;5.23;4.83;;;;;;;22.38;28.37;96436.31;6212169;28;104220;-64
2022/12/20 10:58:39;;;;;;;5.70;5.30;;;;;;;22.37;28.93;96432.84;6202101;28;105166;-64
2022/12/20 11:01:47;;;;;;;4.73;4.33;;;;;;;22.39;28.41;96427.25;6211920;28;103120;-64
2022/12/20 11:04:59;;;;;;;4.87;4.47;;;;;;;22.38;28.71;96431.00;6211645;28;104090;-65
2022/12/20 11:08:12;;;;;;;4.57;4.27;;;;;;;22.39;28.54;96424.59;6206573;28;103229;-64
2022/12/20 11:11:36;;;;;;;4.23;3.93;;;;;;;22.37;28.75;96421.41;6210774;28;103198;-63
2022/12/20 11:14:40;;;;;;;4.53;4.13;;;;;;;22.35;28.69;96423.53;6211897;28;103817;-64
2022/12/20 11:17:50;;;;;;;5.17;4.77;;;;;;;22.30;28.45;96416.34;6211602;28;103017;-64
2022/12/20 11:21:12;;;;;;;4.60;4.20;;;;;;;22.31;28.99;96417.13;6201535;28;103303;-64
2022/12/20 11:24:30;;;;;;;5.20;4.80;;;;;;;22.28;28.41;96404.34;6211262;28;102940;-64
2022/12/20 11:27:41;;;;;;;4.67;4.33;;;;;;;22.26;28.58;96398.50;6211727;28;104207;-64
2022/12/20 11:30:56;;;;;;;4.10;3.80;;;;;;;22.10;29.06;96371.88;6206171;28;103665;-64
2022/12/20 11:34:09;;;;;;;4.57;4.17;;;;;;;22.22;29.01;96397.44;6210546;28;104025;-64
2022/12/20 11:37:19;;;;;;;4.40;4.10;;;;;;;22.21;29.02;96386.00;6211308;28;104033;-64
2022/12/20 11:40:32;;;;;;;4.70;4.30;;;;;;;22.19;28.62;96382.81;6211015;28;103388;-64
2022/12/20 11:43:49;;;;;;;3.93;3.60;;;;;;;22.19;28.98;96379.34;6199431;28;103495;-64
2022/12/20 11:47:33;;;;;;;4.30;4.00;;;;;;;22.13;28.83;96369.75;6211038;28;102834;-64
2022/12/20 11:51:03;;;;;;;4.70;4.30;;;;;;;22.07;28.97;96356.44;6211075;28;103227;-63
2022/12/20 11:54:13;;;;;;;4.20;3.90;;;;;;;22.08;29.01;96363.38;6199969;28;103139;-63
2022/12/20 11:57:22;;;;;;;4.37;4.07;;;;;;;22.06;29.43;96360.19;6210777;28;104180;-66
2022/12/20 12:00:26;;;;;;;4.50;4.10;;;;;;;22.03;29.16;96357.28;6210592;28;103025;-63
2022/12/20 12:03:34;;;;;;;4.30;4.00;;;;;;;22.02;28.80;96361.00;6210237;28;103123;-65
2022/12/20 12:06:44;;;;;;;4.00;3.70;;;;;;;21.99;29.44;96361.53;6200161;27;103326;-65
2022/12/20 12:09:55;;;;;;;4.37;4.07;;;;;;;21.97;29.00;96353.81;6210246;28;103550;-63
2022/12/20 12:13:04;;;;;;;4.00;3.60;;;;;;;21.95;29.48;96358.63;6210844;28;104019;-63
2022/12/20 12:16:11;;;;;;;4.13;3.83;;;;;;;21.90;29.40;96345.31;6204541;28;104644;-64
2022/12/20 12:19:15;;;;;;;4.50;3.73;;;;;;;21.88;29.38;96346.66;6205002;28;103660;-64
2022/12/20 12:22:27;;;;;;;4.13;3.83;;;;;;;21.86;29.29;96349.59;6211071;28;103278;-64
2022/12/20 12:25:30;;;;;;;3.70;3.40;;;;;;;21.85;29.42;96345.34;6209779;28;104196;-64
2022/12/20 12:28:35;;;;;;;3.87;3.57;;;;;;;21.80;29.25;96342.66;6199830;28;103734;-63
2022/12/20 12:31:43;;;;;;;3.80;3.50;;;;;;;21.80;29.41;96342.66;6209940;28;103395;-64
2022/12/20 12:34:59;;;;;;;3.77;3.50;;;;;;;21.75;29.42;96340.00;6210145;28;104028;-64
2022/12/20 12:38:26;;;;;;;3.90;3.60;;;;;;;21.78;29.38;96352.78;6210374;28;102990;-63
2022/12/20 12:42:03;;;;;;;3.87;3.57;;;;;;;21.77;29.52;96343.19;6203534;28;104159;-63
2022/12/20 12:45:15;;;;;;;3.83;3.53;;;;;;;21.75;29.46;96340.00;6209864;28;102783;-66
2022/12/20 12:48:21;;;;;;;4.07;3.77;;;;;;;21.74;29.18;96339.22;6209042;28;103091;-63
2022/12/20 12:51:31;;;;;;;3.73;3.43;;;;;;;21.75;29.60;96340.00;6200396;28;103984;-63
2022/12/20 12:54:39;;;;;;;3.33;3.13;;;;;;;21.73;29.43;96344.81;6209861;28;103196;-62
2022/12/20 12:57:55;;;;;;;4.47;4.07;;;;;;;21.72;29.69;96344.03;6209692;28;103017;-63
2022/12/20 13:01:01;;;;;;;3.20;3.00;;;;;;;21.72;28.99;96341.34;6209785;28;103952;-63
2022/12/20 13:04:27;;;;;;;3.80;3.50;;;;;;;21.65;29.18;96330.16;6201160;28;104139;-65
2022/12/20 13:07:43;;;;;;;3.67;3.37;;;;;;;21.70;29.61;96332.84;6209908;28;103996;-64
2022/12/20 13:11:02;;;;;;;3.37;3.17;;;;;;;21.70;29.28;96326.72;6209654;28;104103;-65
2022/12/20 13:14:48;;;;;;;3.70;3.40;;;;;;;21.69;29.27;96325.13;6199000;28;103812;-65
2022/12/20 13:17:53;;;;;;;3.27;3.07;;;;;;;21.69;29.46;96317.13;6209492;28;105595;-64
2022/12/20 13:21:28;;;;;;;3.37;3.07;;;;;;;21.66;29.21;96318.44;6209073;28;103191;-64
2022/12/20 13:24:52;;;;;;;3.20;3.00;;;;;;;21.61;29.29;96307.00;6201863;28;103534;-64
2022/12/20 13:28:35;;;;;;;3.60;3.30;;;;;;;21.66;28.94;96320.31;6209288;28;104201;-65
2022/12/20 13:31:38;;;;;;;3.00;2.80;;;;;;;21.64;29.32;96322.44;6209061;28;103152;-64
2022/12/20 13:34:56;;;;;;;4.23;3.30;;;;;;;21.62;28.98;96325.38;6209230;28;103266;-64
2022/12/20 13:38:03;;;;;;;3.30;3.00;;;;;;;21.61;29.22;96317.66;6199574;27;103829;-64
2022/12/20 13:41:19;;;;;;;3.00;2.80;;;;;;;21.61;29.09;96307.00;6213686;28;104093;-65
2022/12/20 13:44:45;;;;;;;3.67;3.37;;;;;;;21.60;29.50;96314.22;6214114;28;104179;-64
2022/12/20 13:47:52;;;;;;;3.20;2.90;;;;;;;21.61;28.90;96312.34;6198615;28;103274;-65
2022/12/20 13:50:56;;;;;;;2.70;2.50;;;;;;;21.59;29.12;96303.81;6213424;28;103053;-64
2022/12/20 13:54:02;;;;;;;3.70;3.40;;;;;;;21.52;29.11;96298.81;6212320;28;103813;-64
2022/12/20 13:57:07;;;;;;;3.30;3.10;;;;;;;21.46;29.02;96295.34;6213405;28;103356;-64
2022/12/20 14:00:18;;;;;;;2.60;2.40;;;;;;;21.58;29.36;96310.22;6201912;27;103089;-64
2022/12/20 14:03:25;;;;;;;3.17;2.97;;;;;;;21.57;29.00;96311.28;6212600;28;104316;-64
2022/12/20 14:06:29;;;;;;;3.37;3.17;;;;;;;21.56;29.03;96302.50;6213143;28;104044;-64
2022/12/20 14:09:33;;;;;;;3.20;2.90;;;;;;;21.54;29.28;96295.88;6208209;28;104711;-65
2022/12/20 14:12:36;;;;;;;2.83;2.63;;;;;;;21.55;29.25;96290.25;6207040;28;103277;-64
2022/12/20 14:15:41;;;;;;;3.30;3.03;;;;;;;21.55;29.12;96294.78;6212240;28;103267;-64
2022/12/20 14:18:49;;;;;;;3.53;3.23;;;;;;;21.44;29.21;96270.84;6212619;28;104283;-64
2022/12/20 14:21:52;;;;;;;2.97;2.70;;;;;;;21.54;29.21;96290.53;6201963;28;103248;-64
2022/12/20 14:24:55;;;;;;;3.37;3.07;;;;;;;21.51;28.71;96287.34;6212010;28;104518;-65
2022/12/20 14:27:59;;;;;;;2.97;2.73;;;;;;;21.51;29.26;96287.34;6212407;28;103977;-64
2022/12/20 14:31:05;;;;;;;3.47;2.97;;;;;;;21.50;28.87;96284.94;6212875;28;104040;-64
2022/12/20 14:34:16;;;;;;;2.73;2.53;;;;;;;21.49;29.26;96278.81;6201894;28;103029;-64
2022/12/20 14:37:28;;;;;;;2.97;2.77;;;;;;;21.48;29.14;96277.22;6212411;28;104470;-64
2022/12/20 14:40:32;;;;;;;3.50;3.20;;;;;;;21.45;29.12;96272.44;6212350;28;104540;-64
2022/12/20 14:43:36;;;;;;;2.83;2.63;;;;;;;21.34;28.73;96252.25;6207556;27;103119;-64